AirNav   Everest Fuels
 
 1127 users online  

35FD Rush Airport
Trenton, Florida, USA

GOING TO TRENTON?


FAA INFORMATION EFFECTIVE 22 APRIL 2021

Location

FAA Identifier: 35FD
Lat/Long: 29-41-32.4000N 082-43-45.0000W
29-41.540000N 082-43.750000W
29.6923333,-82.7291667
(estimated)
Elevation: 80 ft. / 24 m (estimated)
From city: 9 miles SW of TRENTON, FL
Time zone: UTC -4 (UTC -5 during Standard Time)
Zip code: 32693

Airport Operations

Airport use: Private use. Permission required prior to landing
Activation date: 05/2005
Control tower: no
ARTCC: JACKSONVILLE CENTER
FSS: GAINESVILLE FLIGHT SERVICE STATION
Attendance: CONTINUOUS
Wind indicator: yes
Segmented circle: no

Airport Communications

WX AWOS-3PT at CTY (20 nm W): 120.775 (352-498-0221)

Nearby radio navigation aids

VOR radial/distance  VOR name  Freq  Var
CTYr073/17.6CROSS CITY VORTAC112.0002W
GNVr274/23.8GATORS VORTAC116.2004W

 
NDB name  Hdg/Dist  Freq  Var  ID
LAKE CITY198/30.620403WLCQ .-.. -.-. --.-

Airport Services

Runway Information

Runway 18/36

Dimensions: 2000 x 120 ft. / 610 x 37 m
Surface: turf
RUNWAY 18  RUNWAY 36
Traffic pattern: leftleft

Airport Ownership and Management from official FAA records

Ownership: Privately-owned
Owner: VIRGIL RUSH
3319 SE 40 WAY
TRENTON, FL 32693
Phone 352-799-7268
Manager: VIRGIL RUSH
3319 SE 40 WAY
TRENTON, FL 32693
Phone 352-463-2729

Airport Operational Statistics

Aircraft based on the field: 2
Single engine airplanes: 2
    

Additional Remarks

FOR CD CTC JACKSONVILLE APCH AT 904-741-0284.

Instrument Procedures

There are no published instrument procedures at 35FD.

Some nearby airports with instrument procedures:

KCTY - Cross City Airport (20 nm W)
KGNV - Gainesville Regional Airport (24 nm E)
X60 - Williston Municipal Airport (24 nm SE)
KLCQ - Lake City Gateway Airport (30 nm N)
42J - Keystone Heights Airport (37 nm E)
 
Loc | Ops | Rwys | IFR | FBO | Links
Com | Nav | Svcs | Stats | Notes
Area around 35FD (Rush Airport)
 
Road maps at: MapQuest Bing Google
 
Aerial photo
No photo
 
Sectional chart

 
Airport distance calculator
Flying to Rush Airport? Find the distance to fly.

From to 35FD

Sunrise and sunset
Times for 16-May-2021
 Local
(UTC-4)
 Zulu
(UTC)
Morning civil twilight06:1210:12
Sunrise06:3810:38
Sunset20:1600:16
Evening civil twilight20:4200:42

Current date and time
Zulu (UTC)  16-May-2021 23:46:03
Local (UTC-4)  16-May-2021 19:46:03
 
METAR
KCTY 
21nm SW 
162335Z AUTO 08005KT 10SM CLR 26/12 A3013 RMK AO2 T02600123
KGNV 
23nm E 
162253Z 08010KT 10SM OVC065 25/13 A3018 RMK AO2 SLP218 T02500133
KX60 
24nm SE 
118.425 352-528-9949
162335Z AUTO 11004KT 10SM BKN060 25/12 A3015 RMK AO2 T02480124
KLCQ 
30nm N 
162335Z AUTO 10005KT 10SM CLR 23/13 A3017 RMK AO2
K42J 
37nm E 
162335Z AUTO 08010G15KT 10SM CLR 23/11 A3017 RMK A01 TSNO
K24J 
40nm NW 
162335Z AUTO 08006KT 10SM BKN065 26/11 A3015 RMK A01
KOCF 
41nm SE 
162251Z 09011G18KT 10SM FEW065 26/13 A3014 RMK AO2 SLP208 T02560128 $
TAF
KGNV 
23nm E 
161720Z 1618/1718 08010G16KT P6SM FEW060 SCT250 FM170300 VRB03KT P6SM FEW250 FM171500 10010KT P6SM FEW045 SCT250
NOTAMs
Click for the latest NOTAMs
NOTAMs are issued by the DoD/FAA and will open in a separate window not controlled by AirNav.

 

 
 

Would you like to see your business listed on this page?

 If your business provides an interesting product or service to pilots, flight crews, aircraft, or users of the Rush Airport, you should consider listing it here.  To start the listing process, click on the button below
 
Add a business
 

Other Pages about Rush Airport

Update a link
 
Copyright © AirNav, LLC. All rights reserved. Privacy Policy  Contact